Time;durP1;ratioP1;P1;durP2;ratioP2;P2;SDS_P1;SDS_P2;PMS_P1;PMS_P2;Temp;Humidity;BMP_temperature;BMP_pressure;BME280_temperature;BME280_humidity;BME280_pressure;Samples;Min_cycle;Max_cycle;Signal;HPM_P1;HPM_P2
2023/08/16 00:01:01;;;;;;;21.98;14.30;;;21.00;99.90;;;;;;4966485;28;20133;-72
2023/08/16 00:03:47;;;;;;;19.00;15.05;;;21.00;99.90;;;;;;4985491;28;20069;-72
2023/08/16 00:06:33;;;;;;;19.33;14.63;;;21.00;99.90;;;;;;4990076;28;20648;-72
2023/08/16 00:09:20;;;;;;;18.58;15.10;;;21.00;99.90;;;;;;4978933;28;20038;-72
2023/08/16 00:12:06;;;;;;;22.30;15.70;;;21.00;99.90;;;;;;4984493;28;20537;-72
2023/08/16 00:14:52;;;;;;;22.05;14.70;;;21.00;99.90;;;;;;4986279;28;20429;-72
2023/08/16 00:17:38;;;;;;;24.75;15.85;;;21.00;99.90;;;;;;4980948;28;20039;-72
2023/08/16 00:20:26;;;;;;;21.17;14.73;;;21.00;99.90;;;;;;4975883;28;20042;-72
2023/08/16 00:23:12;;;;;;;22.50;15.00;;;21.00;99.90;;;;;;4979989;28;20587;-72
2023/08/16 00:25:58;;;;;;;20.95;14.70;;;21.00;99.90;;;;;;4982724;28;20122;-72
2023/08/16 00:28:45;;;;;;;22.70;15.68;;;20.90;99.90;;;;;;4978702;28;20047;-72
2023/08/16 00:31:31;;;;;;;20.92;15.23;;;20.80;99.90;;;;;;4953963;28;20042;-72
2023/08/16 00:34:17;;;;;;;23.70;16.77;;;20.80;99.90;;;;;;4968989;28;20046;-72
2023/08/16 00:37:03;;;;;;;22.15;14.82;;;20.70;99.90;;;;;;4975743;28;20086;-71
2023/08/16 00:39:49;;;;;;;19.90;14.88;;;20.70;99.90;;;;;;4991755;28;20228;-71
2023/08/16 00:42:35;;;;;;;23.45;15.63;;;20.80;99.90;;;;;;5000159;28;20046;-71
2023/08/16 00:45:21;;;;;;;21.35;15.52;;;20.80;99.90;;;;;;4974495;28;20054;-71
2023/08/16 00:48:07;;;;;;;17.95;13.30;;;20.70;99.90;;;;;;4993950;28;20053;-71
2023/08/16 00:50:53;;;;;;;22.38;14.00;;;20.80;99.90;;;;;;4946213;28;20081;-71
2023/08/16 00:53:40;;;;;;;18.52;14.20;;;20.80;99.90;;;;;;4977866;28;20078;-71
2023/08/16 00:56:26;;;;;;;20.35;14.05;;;20.80;99.90;;;;;;4979844;28;20034;-71
2023/08/16 00:59:12;;;;;;;20.00;13.88;;;20.80;99.90;;;;;;4972111;28;20442;-71
2023/08/16 01:01:58;;;;;;;19.90;12.98;;;20.80;99.90;;;;;;4966224;28;20046;-71
2023/08/16 01:04:46;;;;;;;17.38;12.50;;;20.80;99.90;;;;;;4978490;28;20053;-71
2023/08/16 01:07:32;;;;;;;17.33;12.30;;;20.80;99.90;;;;;;4982568;28;20145;-72
2023/08/16 01:10:19;;;;;;;17.13;13.10;;;20.80;99.90;;;;;;4976880;28;20133;-71
2023/08/16 01:13:09;;;;;;;19.10;13.00;;;20.80;99.90;;;;;;4978626;28;20113;-71
2023/08/16 01:15:56;;;;;;;21.25;13.30;;;20.70;99.90;;;;;;4972533;28;20355;-71
2023/08/16 01:18:42;;;;;;;17.20;12.75;;;20.70;99.90;;;;;;4982623;28;20043;-71
2023/08/16 01:21:28;;;;;;;18.55;14.45;;;20.70;99.90;;;;;;4988743;28;20046;-71
2023/08/16 01:24:22;;;;;;;18.67;13.35;;;20.70;99.90;;;;;;4973695;28;20065;-71
2023/08/16 01:27:08;;;;;;;20.08;12.27;;;20.60;99.90;;;;;;4975000;28;20064;-71
2023/08/16 01:29:54;;;;;;;16.88;12.93;;;20.60;99.90;;;;;;4976226;28;20042;-71
2023/08/16 01:32:40;;;;;;;21.20;15.50;;;20.60;99.90;;;;;;4990597;28;20490;-71
2023/08/16 01:35:26;;;;;;;18.50;12.60;;;20.60;99.90;;;;;;4975716;28;20074;-71
2023/08/16 01:38:13;;;;;;;20.90;14.48;;;20.60;99.90;;;;;;4979553;28;20427;-71
2023/08/16 01:41:02;;;;;;;20.85;16.00;;;20.50;99.90;;;;;;4984558;28;20076;-72
2023/08/16 01:43:48;;;;;;;18.20;13.57;;;20.40;99.90;;;;;;4963614;28;20044;-71
2023/08/16 01:46:34;;;;;;;16.80;13.05;;;20.40;99.90;;;;;;4971580;28;20836;-71
2023/08/16 01:49:20;;;;;;;14.82;11.23;;;20.30;99.90;;;;;;4964863;28;20042;-71
2023/08/16 01:52:06;;;;;;;17.60;12.55;;;20.30;99.90;;;;;;4975340;28;20041;-72
2023/08/16 01:54:52;;;;;;;13.35;10.35;;;20.30;99.90;;;;;;4968081;28;20058;-71
2023/08/16 01:57:38;;;;;;;15.82;11.57;;;20.20;99.90;;;;;;4985422;28;20116;-72
2023/08/16 02:00:24;;;;;;;18.55;12.20;;;20.20;99.90;;;;;;4984145;28;20442;-72
2023/08/16 02:03:10;;;;;;;15.18;9.85;;;20.20;99.90;;;;;;4985025;28;20412;-71
2023/08/16 02:05:56;;;;;;;14.27;11.02;;;20.20;99.90;;;;;;4981269;28;20035;-71
2023/08/16 02:08:42;;;;;;;17.73;10.45;;;20.10;99.90;;;;;;4978409;28;20038;-71
2023/08/16 02:11:29;;;;;;;14.23;11.10;;;20.20;99.90;;;;;;4976079;28;20093;-72
2023/08/16 02:14:15;;;;;;;14.00;11.27;;;20.10;99.90;;;;;;4984116;28;20058;-72
2023/08/16 02:17:01;;;;;;;19.67;15.13;;;20.10;99.90;;;;;;4949929;28;20049;-71
2023/08/16 02:19:48;;;;;;;18.27;13.15;;;20.00;99.90;;;;;;4962571;28;20034;-72
2023/08/16 02:22:34;;;;;;;15.35;11.55;;;19.90;99.90;;;;;;4989528;28;20038;-72
2023/08/16 02:25:20;;;;;;;16.85;11.52;;;20.00;99.90;;;;;;4964792;28;20161;-73
2023/08/16 02:28:06;;;;;;;14.68;11.93;;;20.00;99.90;;;;;;4995987;28;20053;-73
2023/08/16 02:30:52;;;;;;;14.85;11.35;;;20.00;99.90;;;;;;4963112;28;20041;-72
2023/08/16 02:33:38;;;;;;;12.75;10.85;;;20.00;99.90;;;;;;4994916;28;20046;-72
2023/08/16 02:36:24;;;;;;;14.68;11.23;;;20.00;99.90;;;;;;4970004;28;20061;-72
2023/08/16 02:39:10;;;;;;;16.70;13.25;;;20.00;99.90;;;;;;4977638;28;20053;-72
2023/08/16 02:41:56;;;;;;;17.08;14.63;;;20.00;99.90;;;;;;4977104;28;20129;-72
2023/08/16 02:44:42;;;;;;;34.35;16.73;;;19.90;99.90;;;;;;4962071;28;20077;-72
2023/08/16 02:47:28;;;;;;;25.58;15.55;;;20.00;99.90;;;;;;4990493;28;20061;-72
2023/08/16 02:50:14;;;;;;;16.70;14.45;;;19.90;99.90;;;;;;4974506;28;20487;-72
2023/08/16 02:53:00;;;;;;;15.52;13.57;;;19.90;99.90;;;;;;4979502;28;20077;-73
2023/08/16 02:55:46;;;;;;;16.85;13.55;;;19.90;99.90;;;;;;4973010;28;20046;-72
2023/08/16 02:58:32;;;;;;;22.88;12.15;;;19.90;99.90;;;;;;4990601;28;20386;-72
2023/08/16 03:01:17;;;;;;;17.30;11.93;;;19.90;99.90;;;;;;4978164;28;20061;-74
2023/08/16 03:04:04;;;;;;;20.52;11.45;;;19.90;99.90;;;;;;4977700;28;20050;-72
2023/08/16 03:06:50;;;;;;;20.95;12.65;;;19.80;99.90;;;;;;4976053;28;20042;-72
2023/08/16 03:09:36;;;;;;;10.73;9.55;;;19.80;99.90;;;;;;4984808;28;20069;-72
2023/08/16 03:12:22;;;;;;;11.70;10.50;;;19.80;99.90;;;;;;4962670;28;20101;-72
2023/08/16 03:15:08;;;;;;;11.57;10.38;;;19.80;99.90;;;;;;4981739;28;20046;-71
2023/08/16 03:17:54;;;;;;;12.63;10.23;;;19.80;99.90;;;;;;4992586;28;20050;-72
2023/08/16 03:20:40;;;;;;;13.23;11.70;;;19.70;99.90;;;;;;4994931;28;20042;-72
2023/08/16 03:23:26;;;;;;;11.63;9.65;;;19.70;99.90;;;;;;4969699;28;20093;-72
2023/08/16 03:26:12;;;;;;;11.70;10.35;;;19.80;99.90;;;;;;4987715;28;20038;-72
2023/08/16 03:28:58;;;;;;;14.73;10.15;;;19.80;99.90;;;;;;4983841;28;20153;-72
2023/08/16 03:31:44;;;;;;;13.25;11.85;;;19.70;99.90;;;;;;4977677;28;20529;-71
2023/08/16 03:34:30;;;;;;;10.98;9.88;;;19.70;99.90;;;;;;4966687;28;20056;-71
2023/08/16 03:37:16;;;;;;;24.88;13.30;;;19.70;99.90;;;;;;4969759;28;20125;-71
2023/08/16 03:40:05;;;;;;;16.75;12.60;;;19.60;99.90;;;;;;5000882;28;20137;-71
2023/08/16 03:42:51;;;;;;;16.45;11.52;;;19.40;99.90;;;;;;4981193;28;20057;-71
2023/08/16 03:45:39;;;;;;;12.63;11.32;;;19.40;99.90;;;;;;4983274;28;20363;-71
2023/08/16 03:48:25;;;;;;;14.02;12.35;;;19.40;99.90;;;;;;4985211;28;20042;-71
2023/08/16 03:51:11;;;;;;;13.90;11.57;;;19.50;99.90;;;;;;4977079;28;20039;-71
2023/08/16 03:53:57;;;;;;;17.02;13.68;;;19.50;99.90;;;;;;4985500;28;20340;-71
2023/08/16 03:56:43;;;;;;;14.50;11.27;;;19.50;99.90;;;;;;4978944;28;20471;-71
2023/08/16 03:59:29;;;;;;;14.10;11.40;;;19.40;99.90;;;;;;4970040;28;20053;-71
2023/08/16 04:02:15;;;;;;;14.43;12.50;;;19.50;99.90;;;;;;4960802;28;20047;-72
2023/08/16 04:05:11;;;;;;;12.73;10.50;;;19.40;99.90;;;;;;4973756;28;20061;-71
2023/08/16 04:07:57;;;;;;;11.40;9.13;;;19.40;99.90;;;;;;4976531;28;20038;-71
2023/08/16 04:10:43;;;;;;;10.88;9.50;;;19.40;99.90;;;;;;4978809;28;20605;-71
2023/08/16 04:13:29;;;;;;;11.73;10.43;;;19.40;99.90;;;;;;4979984;28;20076;-71
2023/08/16 04:16:15;;;;;;;15.00;10.30;;;19.30;99.90;;;;;;4964703;28;20043;-71
2023/08/16 04:19:01;;;;;;;9.82;8.57;;;19.30;99.90;;;;;;4994312;28;20514;-72
2023/08/16 04:21:47;;;;;;;10.68;9.57;;;19.30;99.90;;;;;;4983241;28;20435;-71
2023/08/16 04:24:33;;;;;;;9.98;8.93;;;19.30;99.90;;;;;;4976773;28;20066;-71
2023/08/16 04:27:19;;;;;;;10.10;8.98;;;19.40;99.90;;;;;;4989516;28;20129;-71
2023/08/16 04:30:06;;;;;;;9.95;8.45;;;19.40;99.90;;;;;;4973398;28;20054;-71
2023/08/16 04:32:52;;;;;;;11.88;9.60;;;19.40;99.90;;;;;;4965037;28;20053;-71
2023/08/16 04:35:38;;;;;;;10.20;9.13;;;19.40;99.90;;;;;;4968076;28;20051;-71
2023/08/16 04:38:24;;;;;;;10.30;9.30;;;19.40;99.90;;;;;;4965039;28;20060;-72
2023/08/16 04:41:10;;;;;;;11.68;9.45;;;19.30;99.90;;;;;;4971031;28;20045;-72
2023/08/16 04:43:56;;;;;;;9.40;8.40;;;19.30;99.90;;;;;;4966580;28;20475;-72
2023/08/16 04:46:42;;;;;;;8.32;7.45;;;19.20;99.90;;;;;;4973246;28;20058;-72
2023/08/16 04:49:28;;;;;;;9.10;7.45;;;19.30;99.90;;;;;;4984763;28;20078;-72
2023/08/16 04:52:14;;;;;;;17.27;8.23;;;19.30;99.90;;;;;;4972532;28;20042;-72
2023/08/16 04:55:00;;;;;;;11.02;7.80;;;19.40;99.90;;;;;;4967857;28;20105;-72
2023/08/16 04:57:46;;;;;;;8.32;6.60;;;19.50;99.90;;;;;;4970070;28;20437;-71
2023/08/16 05:00:33;;;;;;;7.82;6.85;;;19.40;99.90;;;;;;4972190;28;20039;-72
2023/08/16 05:03:19;;;;;;;7.18;6.25;;;19.40;99.90;;;;;;4976603;28;20112;-71
2023/08/16 05:06:05;;;;;;;11.50;7.78;;;19.30;99.90;;;;;;4985123;28;20086;-72
2023/08/16 05:08:51;;;;;;;6.55;5.15;;;19.30;99.90;;;;;;4990844;28;20108;-72
2023/08/16 05:11:37;;;;;;;7.32;5.57;;;19.40;99.90;;;;;;4982764;28;20046;-72
2023/08/16 05:14:23;;;;;;;7.18;5.57;;;19.50;99.90;;;;;;4960489;28;20058;-72
2023/08/16 05:17:09;;;;;;;10.00;6.35;;;19.60;99.90;;;;;;4965130;28;20042;-72
2023/08/16 05:19:56;;;;;;;12.05;6.55;;;19.60;99.90;;;;;;4969518;28;20035;-72
2023/08/16 05:22:42;;;;;;;8.80;5.72;;;19.70;99.90;;;;;;4971463;28;20049;-72
2023/08/16 05:25:28;;;;;;;7.35;6.05;;;19.60;99.90;;;;;;4982054;28;20101;-72
2023/08/16 05:28:14;;;;;;;10.50;5.32;;;19.60;99.90;;;;;;4969393;28;20074;-72
2023/08/16 05:31:09;;;;;;;7.75;6.45;;;19.60;99.90;;;;;;4953071;28;20526;-72
2023/08/16 05:33:55;;;;;;;8.75;6.13;;;19.60;99.90;;;;;;4948229;28;20106;-72
2023/08/16 05:36:49;;;;;;;8.68;6.75;;;19.60;99.90;;;;;;4977718;28;20042;-71
2023/08/16 05:39:35;;;;;;;10.15;6.15;;;19.60;99.90;;;;;;4963812;28;20547;-71
2023/08/16 05:42:22;;;;;;;8.75;6.28;;;19.60;99.90;;;;;;4970751;28;20047;-72
2023/08/16 05:45:08;;;;;;;8.05;6.15;;;19.60;99.90;;;;;;4972422;28;20132;-71
2023/08/16 05:47:54;;;;;;;7.40;5.93;;;19.60;99.90;;;;;;4973064;28;20082;-71
2023/08/16 05:50:41;;;;;;;6.95;5.78;;;19.60;99.90;;;;;;4981130;28;20151;-71
2023/08/16 05:53:27;;;;;;;11.25;6.50;;;19.60;99.90;;;;;;4961189;28;20046;-71
2023/08/16 05:56:13;;;;;;;9.52;5.28;;;19.50;99.90;;;;;;4967560;28;20041;-71
2023/08/16 05:59:01;;;;;;;8.60;5.45;;;19.50;99.90;;;;;;4968480;28;20104;-71
2023/08/16 06:01:47;;;;;;;8.50;5.50;;;19.40;99.90;;;;;;4960906;28;20075;-72
2023/08/16 06:04:34;;;;;;;8.80;5.18;;;19.40;99.90;;;;;;4984052;28;20403;-71
2023/08/16 06:07:20;;;;;;;11.10;5.85;;;19.40;99.90;;;;;;4960922;28;20043;-71
2023/08/16 06:10:07;;;;;;;8.68;5.20;;;19.40;99.90;;;;;;4970945;28;20050;-71
2023/08/16 06:12:53;;;;;;;8.93;4.40;;;19.50;99.90;;;;;;4957880;28;20133;-71
2023/08/16 06:15:39;;;;;;;6.93;4.32;;;19.60;99.90;;;;;;4974257;28;20035;-71
2023/08/16 06:18:25;;;;;;;9.13;4.55;;;19.70;99.90;;;;;;4958342;28;20098;-71
2023/08/16 06:21:11;;;;;;;6.55;4.18;;;19.70;99.90;;;;;;4968764;28;20101;-71
2023/08/16 06:23:57;;;;;;;6.90;3.72;;;19.80;99.90;;;;;;4951709;28;20090;-71
2023/08/16 06:26:43;;;;;;;7.43;3.97;;;19.90;99.90;;;;;;4954890;28;20038;-71
2023/08/16 06:29:29;;;;;;;7.32;4.22;;;19.90;99.90;;;;;;4973144;28;20050;-71
2023/08/16 06:32:15;;;;;;;5.70;3.90;;;19.90;99.90;;;;;;4957653;28;20085;-71
2023/08/16 06:35:03;;;;;;;8.07;3.92;;;19.90;99.90;;;;;;4965045;28;20562;-71
2023/08/16 06:37:50;;;;;;;6.70;4.40;;;19.90;99.90;;;;;;4964540;28;20059;-71
2023/08/16 06:40:36;;;;;;;7.32;4.40;;;19.90;99.90;;;;;;4972713;28;20070;-71
2023/08/16 06:43:22;;;;;;;6.95;3.60;;;19.90;99.90;;;;;;4974715;28;20039;-73
2023/08/16 06:46:08;;;;;;;9.38;4.22;;;19.90;99.90;;;;;;4970113;28;20057;-71
2023/08/16 06:48:54;;;;;;;9.32;4.15;;;20.00;99.90;;;;;;4970210;28;20042;-71
2023/08/16 06:51:40;;;;;;;7.65;4.13;;;20.10;99.90;;;;;;4959351;28;20104;-70
2023/08/16 06:54:26;;;;;;;8.43;3.80;;;20.20;99.90;;;;;;4952424;28;20047;-70
2023/08/16 06:57:12;;;;;;;8.10;3.80;;;20.20;99.90;;;;;;4979447;28;20036;-71
2023/08/16 06:59:58;;;;;;;6.57;3.80;;;20.30;99.90;;;;;;4973818;28;20039;-71
2023/08/16 07:02:45;;;;;;;9.50;3.53;;;20.40;99.90;;;;;;4953405;28;20035;-71
2023/08/16 07:05:31;;;;;;;6.57;3.63;;;20.50;99.90;;;;;;4982369;28;20382;-71
2023/08/16 07:08:19;;;;;;;7.63;3.35;;;20.60;99.90;;;;;;4978402;28;20274;-71
2023/08/16 07:11:05;;;;;;;;;;;20.70;99.90;;;;;;4979456;28;20039;-71
2023/08/16 07:13:52;;;;;;;6.88;3.20;;;20.70;99.90;;;;;;4960710;28;19929;-71
2023/08/16 07:16:39;;;;;;;8.63;3.53;;;20.80;99.90;;;;;;4948714;28;20526;-71
2023/08/16 07:19:25;;;;;;;11.88;3.80;;;20.80;99.90;;;;;;4976178;28;20034;-71
2023/08/16 07:22:11;;;;;;;11.43;4.00;;;20.80;99.90;;;;;;4965472;28;20047;-71
2023/08/16 07:24:59;;;;;;;8.77;4.18;;;20.90;99.90;;;;;;4974408;28;20042;-71
2023/08/16 07:27:47;;;;;;;8.65;4.43;;;21.10;99.90;;;;;;4958006;28;20371;-71
2023/08/16 07:30:36;;;;;;;6.47;3.38;;;21.20;99.90;;;;;;4969811;28;20043;-71
2023/08/16 07:33:22;;;;;;;10.23;3.70;;;21.20;99.90;;;;;;4967062;28;20049;-71
2023/08/16 07:36:08;;;;;;;7.75;3.70;;;21.20;99.90;;;;;;4970220;28;20725;-71
2023/08/16 07:38:54;;;;;;;6.22;3.70;;;21.30;99.90;;;;;;4985042;28;20050;-71
2023/08/16 07:41:40;;;;;;;8.27;3.72;;;21.10;99.90;;;;;;4957523;28;20043;-71
2023/08/16 07:44:26;;;;;;;9.23;3.63;;;21.20;99.90;;;;;;4981915;28;20340;-72
2023/08/16 07:47:14;;;;;;;5.85;3.90;;;21.10;99.90;;;;;;4990664;28;20378;-71
2023/08/16 07:50:00;;;;;;;9.48;4.15;;;21.00;99.90;;;;;;4970076;28;20043;-71
2023/08/16 07:52:46;;;;;;;7.85;3.60;;;21.00;99.90;;;;;;4972331;28;20046;-71
2023/08/16 07:55:33;;;;;;;8.88;3.70;;;21.10;99.90;;;;;;4975920;28;20042;-71
2023/08/16 07:58:19;;;;;;;7.22;3.97;;;21.10;99.90;;;;;;4965332;28;20047;-71
2023/08/16 08:01:05;;;;;;;8.00;3.33;;;21.20;99.90;;;;;;4986782;28;20049;-71
2023/08/16 08:03:51;;;;;;;6.45;3.30;;;20.80;99.90;;;;;;4991053;28;20046;-71
2023/08/16 08:06:37;;;;;;;8.15;3.22;;;20.70;99.90;;;;;;4989612;28;20078;-71
2023/08/16 08:09:23;;;;;;;8.10;3.42;;;20.70;99.90;;;;;;4981629;28;20447;-71
2023/08/16 08:12:09;;;;;;;9.77;3.72;;;20.70;99.90;;;;;;4972053;28;20042;-71
2023/08/16 08:14:57;;;;;;;9.77;3.58;;;20.50;99.90;;;;;;4989486;28;20050;-71
2023/08/16 08:17:44;;;;;;;;;;;20.50;99.90;;;;;;4965436;28;20111;-71
2023/08/16 08:20:30;;;;;;;8.60;3.47;;;20.40;99.90;;;;;;4983715;28;19921;-71
2023/08/16 08:23:16;;;;;;;8.25;3.25;;;20.40;99.90;;;;;;4991797;28;20486;-71
2023/08/16 08:26:02;;;;;;;8.02;3.40;;;20.50;99.90;;;;;;4977802;28;20116;-71
2023/08/16 08:28:48;;;;;;;7.35;3.15;;;20.80;99.90;;;;;;4967215;28;20048;-71
2023/08/16 08:31:34;;;;;;;8.68;3.17;;;20.80;99.90;;;;;;4992286;28;20049;-73
2023/08/16 08:34:20;;;;;;;5.35;3.10;;;21.00;99.90;;;;;;4977484;28;20050;-71
2023/08/16 08:37:06;;;;;;;7.97;3.30;;;21.20;99.90;;;;;;5004564;28;20054;-71
2023/08/16 08:39:52;;;;;;;6.65;3.00;;;21.20;99.90;;;;;;4976302;28;20113;-71
2023/08/16 08:42:38;;;;;;;6.82;3.00;;;21.20;99.90;;;;;;4965016;28;20132;-71
2023/08/16 08:45:25;;;;;;;12.52;3.20;;;21.40;99.90;;;;;;4969828;28;20830;-71
2023/08/16 08:48:12;;;;;;;7.93;3.05;;;21.50;99.90;;;;;;4977371;28;20042;-71
2023/08/16 08:50:58;;;;;;;6.95;2.50;;;21.70;99.90;;;;;;4989057;28;20558;-71
2023/08/16 08:53:45;;;;;;;8.80;3.08;;;21.90;99.90;;;;;;4976483;28;20038;-71
2023/08/16 08:56:31;;;;;;;9.95;3.05;;;21.90;99.90;;;;;;4990308;28;20096;-71
2023/08/16 08:59:16;;;;;;;6.30;3.13;;;22.00;99.90;;;;;;4978860;28;20030;-71
2023/08/16 09:02:03;;;;;;;5.07;3.10;;;21.90;99.90;;;;;;4975218;28;20046;-71
2023/08/16 09:04:50;;;;;;;5.97;2.67;;;22.00;99.90;;;;;;4982809;28;20045;-71
2023/08/16 09:07:36;;;;;;;7.88;3.10;;;22.00;99.90;;;;;;4975440;28;20064;-71
2023/08/16 09:10:22;;;;;;;7.78;3.33;;;22.00;99.90;;;;;;4973583;28;20043;-71
2023/08/16 09:13:10;;;;;;;6.35;3.05;;;22.00;99.90;;;;;;4985321;28;20057;-71
2023/08/16 09:15:56;;;;;;;7.18;3.70;;;22.10;99.90;;;;;;4964530;28;20050;-71
2023/08/16 09:18:48;;;;;;;9.15;4.43;;;22.10;99.90;;;;;;4968092;28;20097;-71
2023/08/16 09:21:34;;;;;;;7.45;3.40;;;22.10;99.90;;;;;;4989203;28;20221;-71
2023/08/16 09:24:26;;;;;;;5.80;2.90;;;22.20;99.90;;;;;;4982718;28;20442;-71
2023/08/16 09:27:12;;;;;;;7.03;3.40;;;22.40;99.90;;;;;;4974932;28;20043;-71
2023/08/16 09:29:58;;;;;;;10.98;4.10;;;22.50;99.90;;;;;;4976424;28;20395;-71
2023/08/16 09:32:47;;;;;;;6.50;3.60;;;22.50;99.90;;;;;;4971294;28;20048;-71
2023/08/16 09:35:38;;;;;;;7.60;4.03;;;22.50;99.90;;;;;;4972566;28;20487;-71
2023/08/16 09:38:24;;;;;;;6.72;3.45;;;22.50;99.90;;;;;;4986929;28;20049;-71
2023/08/16 09:41:18;;;;;;;10.50;3.40;;;22.60;99.90;;;;;;4979917;28;20072;-70
2023/08/16 09:44:05;;;;;;;8.02;3.90;;;22.80;99.90;;;;;;4993059;28;20113;-70
2023/08/16 09:46:51;;;;;;;6.13;3.60;;;23.00;99.90;;;;;;4976957;28;20077;-70
2023/08/16 09:49:39;;;;;;;11.15;3.80;;;23.10;99.90;;;;;;4968534;28;20049;-70
2023/08/16 09:52:25;;;;;;;7.45;3.42;;;22.90;99.90;;;;;;4970767;28;20038;-70
2023/08/16 09:55:11;;;;;;;7.45;3.85;;;22.90;99.90;;;;;;4973403;28;20049;-70
2023/08/16 09:57:58;;;;;;;7.18;4.07;;;23.10;99.90;;;;;;4965214;28;20463;-70
2023/08/16 10:00:44;;;;;;;11.57;4.67;;;23.10;99.90;;;;;;4980633;28;20034;-70
2023/08/16 10:03:33;;;;;;;7.82;3.70;;;23.10;99.90;;;;;;4989900;28;20034;-70
2023/08/16 10:06:22;;;;;;;9.10;4.05;;;23.40;99.90;;;;;;4962347;28;20737;-70
2023/08/16 10:09:09;;;;;;;7.10;3.78;;;23.70;99.90;;;;;;4961184;28;20117;-70
2023/08/16 10:11:55;;;;;;;6.35;3.53;;;23.80;99.90;;;;;;4987901;28;20069;-70
2023/08/16 10:14:41;;;;;;;9.63;4.07;;;23.90;99.90;;;;;;4998010;28;20045;-70
2023/08/16 10:17:28;;;;;;;7.03;3.90;;;24.00;99.90;;;;;;4988246;28;20034;-70
2023/08/16 10:20:24;;;;;;;5.57;3.90;;;24.20;99.90;;;;;;4964804;28;20049;-70
2023/08/16 10:23:11;;;;;;;9.65;3.95;;;24.40;99.90;;;;;;4964110;28;21237;-70
2023/08/16 10:25:57;;;;;;;10.00;4.05;;;24.50;99.90;;;;;;4951670;28;20038;-70
2023/08/16 10:28:49;;;;;;;9.88;4.50;;;24.40;99.90;;;;;;4940429;28;20053;-69
2023/08/16 10:31:38;;;;;;;7.50;4.28;;;24.30;99.90;;;;;;4989702;28;20038;-70
2023/08/16 10:34:24;;;;;;;8.45;3.97;;;24.50;99.90;;;;;;4990093;28;20105;-70
2023/08/16 10:37:13;;;;;;;6.93;4.40;;;24.60;99.90;;;;;;4989054;28;20076;-70
2023/08/16 10:39:59;;;;;;;8.15;4.95;;;24.60;99.90;;;;;;4971126;28;20146;-71
2023/08/16 10:42:55;;;;;;;6.63;4.40;;;24.50;99.90;;;;;;4957690;28;20414;-70
2023/08/16 10:45:45;;;;;;;9.00;4.80;;;24.80;99.90;;;;;;4977361;28;20067;-71
2023/08/16 10:48:33;;;;;;;11.32;5.55;;;24.90;99.90;;;;;;4975563;28;20042;-71
2023/08/16 10:51:19;;;;;;;9.38;4.55;;;24.80;99.90;;;;;;4976929;28;20056;-71
2023/08/16 10:54:07;;;;;;;9.65;4.82;;;25.10;99.90;;;;;;4987912;28;20038;-71
2023/08/16 10:56:53;;;;;;;9.90;4.70;;;25.50;99.90;;;;;;4968723;28;20426;-71
2023/08/16 10:59:42;;;;;;;10.40;5.13;;;25.60;99.90;;;;;;4985732;28;20045;-71
2023/08/16 11:02:39;;;;;;;11.35;5.13;;;25.60;99.90;;;;;;4988340;28;20446;-71
2023/08/16 11:05:28;;;;;;;10.20;4.40;;;25.90;99.90;;;;;;4973640;28;20038;-72
2023/08/16 11:08:15;;;;;;;9.55;4.75;;;26.00;99.90;;;;;;4979648;28;20073;-72
2023/08/16 11:11:01;;;;;;;8.32;4.55;;;26.20;99.90;;;;;;4982336;28;20046;-72
2023/08/16 11:13:47;;;;;;;7.75;4.55;;;26.00;99.90;;;;;;4960281;28;20049;-71
2023/08/16 11:16:33;;;;;;;8.25;4.68;;;26.00;99.90;;;;;;4962839;28;20035;-70
2023/08/16 11:19:23;;;;;;;6.82;3.90;;;25.60;99.90;;;;;;4971331;28;20061;-71
2023/08/16 11:22:09;;;;;;;9.63;3.33;;;25.70;99.90;;;;;;4975588;28;20050;-71
2023/08/16 11:24:55;;;;;;;9.10;3.55;;;26.20;99.90;;;;;;4983426;28;20404;-71
2023/08/16 11:27:41;;;;;;;7.65;4.18;;;26.30;99.90;;;;;;4962191;28;20174;-71
2023/08/16 11:30:31;;;;;;;8.10;4.18;;;26.60;99.90;;;;;;4985942;28;20133;-73
2023/08/16 11:33:18;;;;;;;6.75;3.75;;;26.80;99.90;;;;;;4974686;28;20057;-72
2023/08/16 11:36:08;;;;;;;10.00;4.43;;;26.90;99.90;;;;;;4993263;28;20748;-72
2023/08/16 11:38:54;;;;;;;6.15;3.45;;;27.00;99.90;;;;;;4993200;28;20050;-72
2023/08/16 11:41:40;;;;;;;5.88;3.65;;;27.10;99.90;;;;;;4974416;28;20043;-73
2023/08/16 11:44:37;;;;;;;6.72;4.82;;;27.20;99.90;;;;;;4973086;28;20042;-72
2023/08/16 11:47:23;;;;;;;5.15;3.95;;;27.30;99.90;;;;;;4978398;28;20054;-72
2023/08/16 11:50:10;;;;;;;9.25;4.80;;;27.40;99.90;;;;;;4981381;28;20106;-72
2023/08/16 11:52:57;;;;;;;5.82;3.80;;;27.40;99.90;;;;;;4990226;28;20069;-72
2023/08/16 11:55:58;;;;;;;6.82;4.25;;;27.30;99.90;;;;;;4983374;28;20046;-72
2023/08/16 11:58:46;;;;;;;7.40;4.40;;;27.50;99.90;;;;;;4963686;28;20058;-72
2023/08/16 12:01:32;;;;;;;7.90;4.97;;;27.60;99.90;;;;;;4979205;28;20049;-72
2023/08/16 12:04:18;;;;;;;7.22;4.63;;;27.70;99.90;;;;;;4992731;28;20041;-72
2023/08/16 12:07:09;;;;;;;9.82;4.65;;;27.70;99.90;;;;;;4982320;28;20154;-72
2023/08/16 12:09:56;;;;;;;9.18;4.70;;;27.80;99.90;;;;;;4979500;28;20043;-72
2023/08/16 12:12:42;;;;;;;7.03;4.63;;;28.00;99.90;;;;;;4990448;28;20056;-72
2023/08/16 12:15:28;;;;;;;8.32;4.22;;;28.10;99.90;;;;;;4980702;28;20056;-72
2023/08/16 12:18:17;;;;;;;8.00;4.28;;;28.30;99.90;;;;;;4963612;28;20035;-72
2023/08/16 12:21:03;;;;;;;8.18;4.75;;;28.50;99.90;;;;;;4966131;28;20077;-72
2023/08/16 12:23:49;;;;;;;8.02;4.50;;;28.30;99.90;;;;;;4992073;28;20581;-72
2023/08/16 12:26:35;;;;;;;7.97;4.55;;;28.10;99.90;;;;;;4946867;28;20046;-72
2023/08/16 12:29:21;;;;;;;6.03;4.43;;;28.10;99.90;;;;;;4969424;28;20612;-72
2023/08/16 12:32:07;;;;;;;7.20;4.60;;;28.00;99.90;;;;;;4981940;28;20042;-72
2023/08/16 12:34:53;;;;;;;6.13;4.10;;;27.60;99.90;;;;;;4980577;28;20068;-72
2023/08/16 12:37:39;;;;;;;8.55;4.22;;;27.40;99.90;;;;;;4936314;28;20060;-72
2023/08/16 12:40:28;;;;;;;6.30;3.90;;;27.20;99.90;;;;;;4953508;28;20039;-72
2023/08/16 12:43:14;;;;;;;5.75;3.80;;;27.20;99.90;;;;;;4955635;28;20039;-72
2023/08/16 12:46:05;;;;;;;5.70;4.03;;;27.20;99.90;;;;;;4955920;28;20050;-72
2023/08/16 12:48:51;;;;;;;5.57;4.13;;;27.00;99.90;;;;;;4960802;28;20371;-72
2023/08/16 12:51:37;;;;;;;8.57;4.35;;;27.10;99.90;;;;;;4938844;29;20048;-72
2023/08/16 12:54:23;;;;;;;6.65;3.83;;;27.20;99.90;;;;;;4957547;28;20354;-72
2023/08/16 12:57:09;;;;;;;9.43;4.45;;;27.30;99.90;;;;;;4934827;29;20050;-73
2023/08/16 12:59:55;;;;;;;6.80;4.43;;;27.20;99.90;;;;;;4950804;29;20463;-72
2023/08/16 13:02:41;;;;;;;8.65;4.30;;;27.20;99.90;;;;;;4953166;28;20039;-72
2023/08/16 13:05:27;;;;;;;7.00;4.55;;;27.30;99.90;;;;;;4935791;28;20054;-72
2023/08/16 13:08:14;;;;;;;6.40;3.97;;;27.70;99.90;;;;;;4952417;28;20043;-73
2023/08/16 13:11:00;;;;;;;6.80;4.18;;;28.10;99.90;;;;;;4934530;29;20054;-73
2023/08/16 13:13:46;;;;;;;6.50;4.50;;;28.50;99.90;;;;;;4950430;29;20471;-72
2023/08/16 13:16:32;;;;;;;7.60;4.95;;;28.80;99.90;;;;;;4947967;29;20051;-73
2023/08/16 13:19:19;;;;;;;5.60;4.30;;;29.20;99.90;;;;;;4937768;28;20040;-73
2023/08/16 13:22:06;;;;;;;6.90;4.40;;;29.40;99.90;;;;;;4953959;28;20117;-73
2023/08/16 13:24:52;;;;;;;7.55;4.13;;;29.40;99.90;;;;;;4952108;29;20054;-73
2023/08/16 13:27:38;;;;;;;6.93;4.18;;;29.00;99.90;;;;;;4949124;28;20051;-72
2023/08/16 13:30:24;;;;;;;6.53;3.88;;;28.50;99.90;;;;;;4940232;29;20143;-72
2023/08/16 13:33:10;;;;;;;7.43;4.85;;;27.50;99.90;;;;;;4951012;28;20085;-72
2023/08/16 13:35:56;;;;;;;6.78;4.30;;;27.30;99.90;;;;;;4957415;28;20620;-72
2023/08/16 13:38:41;;;;;;;9.35;4.10;;;27.30;99.90;;;;;;4969182;28;20143;-72
2023/08/16 13:41:29;;;;;;;5.38;3.85;;;27.20;99.90;;;;;;4968707;28;20039;-72
2023/08/16 13:44:15;;;;;;;;;;;27.40;99.90;;;;;;4961265;28;20057;-73
2023/08/16 13:47:03;;;;;;;6.43;3.80;;;27.40;99.90;;;;;;4953671;28;19924;-72
2023/08/16 13:49:49;;;;;;;5.05;3.60;;;27.50;99.90;;;;;;4971487;28;20045;-72
2023/08/16 13:52:35;;;;;;;5.80;3.55;;;27.50;99.90;;;;;;4956699;28;20051;-73
2023/08/16 13:55:20;;;;;;;6.55;3.38;;;32.00;98.80;;;;;;4973745;28;20102;-73
2023/08/16 13:58:06;;;;;;;5.93;3.25;;;33.90;95.30;;;;;;4962693;28;20049;-73
2023/08/16 14:00:52;;;;;;;4.10;2.58;;;37.30;90.30;;;;;;4957211;28;20042;-73
2023/08/16 14:03:38;;;;;;;6.43;3.10;;;37.40;86.50;;;;;;4969899;28;20054;-73
2023/08/16 14:06:25;;;;;;;4.72;2.90;;;36.20;85.10;;;;;;4952197;28;20047;-73
2023/08/16 14:09:11;;;;;;;4.03;2.67;;;37.60;84.70;;;;;;4957440;28;20042;-73
2023/08/16 14:11:58;;;;;;;6.47;2.83;;;35.70;84.90;;;;;;4976928;28;20501;-73
2023/08/16 14:14:44;;;;;;;5.20;3.00;;;32.60;89.20;;;;;;4930074;28;20050;-73
2023/08/16 14:17:29;;;;;;;7.30;2.80;;;31.50;91.60;;;;;;4971086;28;20050;-73
2023/08/16 14:20:15;;;;;;;7.18;3.20;;;33.40;91.40;;;;;;4957639;28;20042;-73